Terminal Aerodrome Forecast
Issued by NWS

Home | Current Version | Previous Version | Text Only | Print | Product List | Glossary On
Versions: 1 2 3 4 5 6 7 8 9 10 11 12 13 14 15 16
511
FTUS42 KMLB 162325
TAFSFB
TAF
KSFB 162325Z 1700/1724 16004KT P6SM BKN120
     FM170200 VRB02KT P6SM SCT250
     FM171400 25004KT P6SM FEW030 SCT250
     FM172000 18008KT P6SM VCTS SCT040CB BKN100=

USA.gov is the U.S. government's official web portal to all federal, state and local government web resources and services.